sensor_id;sensor_type;location;lat;lon;timestamp;pressure;altitude;pressure_sealevel;temperature;humidity
12801;BME280;6464;42.494;27.470;2023-05-02T04:03:32;100572.38;;;8.06;100.00
12801;BME280;6464;42.494;27.470;2023-05-02T04:06:02;100437.56;;;7.25;100.00
12801;BME280;6464;42.494;27.470;2023-05-02T04:08:33;100691.84;;;8.59;100.00
12801;BME280;6464;42.494;27.470;2023-05-02T04:11:10;100550.69;;;7.88;100.00
12801;BME280;6464;42.494;27.470;2023-05-02T04:26:40;100664.72;;;7.54;100.00
12801;BME280;6464;42.494;27.470;2023-05-02T04:29:10;100796.09;;;8.61;100.00
12801;BME280;6464;42.494;27.470;2023-05-02T04:31:46;100660.38;;;7.48;100.00
12801;BME280;6464;42.494;27.470;2023-05-02T04:34:29;100661.19;;;7.59;100.00
12801;BME280;6464;42.494;27.470;2023-05-02T04:36:57;100621.75;;;7.64;100.00
12801;BME280;6464;42.494;27.470;2023-05-02T04:39:28;100896.28;;;9.26;100.00
12801;BME280;6464;42.494;27.470;2023-05-02T04:42:02;100905.75;;;9.42;100.00
12801;BME280;6464;42.494;27.470;2023-05-02T04:44:31;100916.19;;;9.53;100.00
12801;BME280;6464;42.494;27.470;2023-05-02T04:47:10;100926.63;;;9.62;100.00
12801;BME280;6464;42.494;27.470;2023-05-02T04:49:41;100715.78;;;8.25;100.00
12801;BME280;6464;42.494;27.470;2023-05-02T04:52:25;100795.13;;;8.71;100.00
12801;BME280;6464;42.494;27.470;2023-05-02T04:54:57;100963.09;;;9.97;100.00
12801;BME280;6464;42.494;27.470;2023-05-02T04:57:47;100969.16;;;10.04;100.00
12801;BME280;6464;42.494;27.470;2023-05-02T05:00:19;100973.53;;;10.03;100.00
12801;BME280;6464;42.494;27.470;2023-05-02T05:02:57;100827.13;;;9.13;100.00
12801;BME280;6464;42.494;27.470;2023-05-02T05:05:43;100869.09;;;9.29;100.00
12801;BME280;6464;42.494;27.470;2023-05-02T05:08:29;100816.78;;;8.96;100.00
12801;BME280;6464;42.494;27.470;2023-05-02T05:10:57;100982.28;;;10.07;100.00
12801;BME280;6464;42.494;27.470;2023-05-02T05:13:28;100857.00;;;9.08;100.00
12801;BME280;6464;42.494;27.470;2023-05-02T05:15:57;100961.44;;;9.89;100.00
12801;BME280;6464;42.494;27.470;2023-05-02T05:18:25;101075.75;;;10.55;100.00
12801;BME280;6464;42.494;27.470;2023-05-02T05:20:54;101073.91;;;10.62;100.00
12801;BME280;6464;42.494;27.470;2023-05-02T05:23:21;100891.69;;;9.48;100.00
12801;BME280;6464;42.494;27.470;2023-05-02T05:25:48;100996.72;;;9.74;100.00
12801;BME280;6464;42.494;27.470;2023-05-02T05:28:15;100999.63;;;9.45;100.00
12801;BME280;6464;42.494;27.470;2023-05-02T05:30:44;101091.31;;;9.95;100.00
12801;BME280;6464;42.494;27.470;2023-05-02T05:33:12;101213.53;;;10.76;100.00
12801;BME280;6464;42.494;27.470;2023-05-02T05:35:39;101242.31;;;10.99;100.00
12801;BME280;6464;42.494;27.470;2023-05-02T05:38:06;101269.56;;;11.02;100.00
12801;BME280;6464;42.494;27.470;2023-05-02T05:40:33;101137.22;;;10.61;100.00
12801;BME280;6464;42.494;27.470;2023-05-02T05:43:01;101096.31;;;10.26;100.00
12801;BME280;6464;42.494;27.470;2023-05-02T05:45:28;101273.59;;;11.29;100.00
12801;BME280;6464;42.494;27.470;2023-05-02T05:47:57;101264.84;;;11.27;100.00
12801;BME280;6464;42.494;27.470;2023-05-02T05:50:24;101345.81;;;11.99;100.00
12801;BME280;6464;42.494;27.470;2023-05-02T05:52:52;101266.84;;;11.73;100.00
12801;BME280;6464;42.494;27.470;2023-05-02T05:55:19;101370.00;;;12.32;100.00
12801;BME280;6464;42.494;27.470;2023-05-02T05:57:46;101334.22;;;12.09;100.00
12801;BME280;6464;42.494;27.470;2023-05-02T06:00:14;101335.28;;;11.96;100.00
12801;BME280;6464;42.494;27.470;2023-05-02T06:02:41;101184.75;;;11.27;100.00
12801;BME280;6464;42.494;27.470;2023-05-02T06:05:10;101404.31;;;12.37;100.00
12801;BME280;6464;42.494;27.470;2023-05-02T06:07:37;101306.31;;;11.87;100.00
12801;BME280;6464;42.494;27.470;2023-05-02T06:10:05;101446.69;;;12.92;100.00
12801;BME280;6464;42.494;27.470;2023-05-02T06:12:34;101301.69;;;12.04;100.00
12801;BME280;6464;42.494;27.470;2023-05-02T06:15:01;101486.81;;;13.22;100.00
12801;BME280;6464;42.494;27.470;2023-05-02T06:17:28;101479.38;;;13.42;100.00
12801;BME280;6464;42.494;27.470;2023-05-02T06:19:55;101547.84;;;13.67;100.00
12801;BME280;6464;42.494;27.470;2023-05-02T06:22:24;101538.66;;;13.86;100.00
12801;BME280;6464;42.494;27.470;2023-05-02T06:24:51;101473.53;;;13.71;100.00
12801;BME280;6464;42.494;27.470;2023-05-02T06:27:18;101545.03;;;14.21;100.00
12801;BME280;6464;42.494;27.470;2023-05-02T06:29:45;101524.59;;;14.26;100.00
12801;BME280;6464;42.494;27.470;2023-05-02T06:32:11;101449.53;;;13.79;100.00
12801;BME280;6464;42.494;27.470;2023-05-02T06:34:38;101559.50;;;14.49;100.00
12801;BME280;6464;42.494;27.470;2023-05-02T06:37:05;101489.41;;;14.16;100.00
12801;BME280;6464;42.494;27.470;2023-05-02T06:39:35;101571.88;;;14.50;100.00
12801;BME280;6464;42.494;27.470;2023-05-02T06:42:02;101635.28;;;14.65;100.00
12801;BME280;6464;42.494;27.470;2023-05-02T06:44:29;101625.19;;;14.38;100.00
12801;BME280;6464;42.494;27.470;2023-05-02T06:46:57;101833.53;;;14.65;100.00
12801;BME280;6464;42.494;27.470;2023-05-02T06:49:25;101966.72;;;14.93;100.00
12801;BME280;6464;42.494;27.470;2023-05-02T06:51:52;101963.78;;;15.08;100.00
12801;BME280;6464;42.494;27.470;2023-05-02T06:54:19;101817.88;;;14.48;100.00
12801;BME280;6464;42.494;27.470;2023-05-02T06:56:48;101923.94;;;15.08;100.00
12801;BME280;6464;42.494;27.470;2023-05-02T06:59:16;101973.69;;;15.00;100.00
12801;BME280;6464;42.494;27.470;2023-05-02T07:01:43;102114.94;;;15.30;100.00
12801;BME280;6464;42.494;27.470;2023-05-02T07:04:10;102244.44;;;15.80;100.00
12801;BME280;6464;42.494;27.470;2023-05-02T07:06:37;102270.16;;;15.83;100.00
12801;BME280;6464;42.494;27.470;2023-05-02T07:09:05;102371.53;;;16.25;100.00
12801;BME280;6464;42.494;27.470;2023-05-02T07:11:33;102351.22;;;16.17;100.00
12801;BME280;6464;42.494;27.470;2023-05-02T07:14:02;102439.56;;;16.44;100.00
12801;BME280;6464;42.494;27.470;2023-05-02T07:16:30;102254.88;;;15.34;100.00
12801;BME280;6464;42.494;27.470;2023-05-02T07:18:57;102245.16;;;15.31;100.00
12801;BME280;6464;42.494;27.470;2023-05-02T07:21:26;102463.28;;;16.59;100.00
12801;BME280;6464;42.494;27.470;2023-05-02T07:23:54;102249.34;;;15.49;100.00
12801;BME280;6464;42.494;27.470;2023-05-02T07:26:22;102402.50;;;16.30;100.00
12801;BME280;6464;42.494;27.470;2023-05-02T07:28:49;102368.22;;;16.07;100.00
12801;BME280;6464;42.494;27.470;2023-05-02T07:33:54;102311.94;;;15.76;100.00
12801;BME280;6464;42.494;27.470;2023-05-02T07:36:21;102444.34;;;16.78;100.00
12801;BME280;6464;42.494;27.470;2023-05-02T07:38:49;102307.22;;;15.93;100.00
12801;BME280;6464;42.494;27.470;2023-05-02T07:44:06;102473.34;;;16.98;100.00
12801;BME280;6464;42.494;27.470;2023-05-02T07:46:45;102414.25;;;16.73;100.00
12801;BME280;6464;42.494;27.470;2023-05-02T07:49:14;102396.59;;;16.65;100.00
12801;BME280;6464;42.494;27.470;2023-05-02T07:51:42;102369.25;;;16.54;100.00
12801;BME280;6464;42.494;27.470;2023-05-02T07:54:39;102369.91;;;16.67;100.00
12801;BME280;6464;42.494;27.470;2023-05-02T07:57:16;102563.56;;;17.75;100.00
12801;BME280;6464;42.494;27.470;2023-05-02T07:59:43;102502.81;;;17.39;100.00
12801;BME280;6464;42.494;27.470;2023-05-02T08:02:13;102493.19;;;17.31;100.00
12801;BME280;6464;42.494;27.470;2023-05-02T08:04:46;102627.16;;;17.97;100.00
12801;BME280;6464;42.494;27.470;2023-05-02T08:07:15;102455.16;;;17.19;100.00
12801;BME280;6464;42.494;27.470;2023-05-02T08:09:43;102403.53;;;16.76;100.00
12801;BME280;6464;42.494;27.470;2023-05-02T08:12:12;102380.47;;;16.75;100.00
12801;BME280;6464;42.494;27.470;2023-05-02T08:14:44;102577.22;;;18.03;100.00
12801;BME280;6464;42.494;27.470;2023-05-02T08:17:12;102456.50;;;17.43;100.00
12801;BME280;6464;42.494;27.470;2023-05-02T08:19:51;102604.25;;;18.31;100.00
12801;BME280;6464;42.494;27.470;2023-05-02T08:22:21;102439.75;;;17.37;100.00
12801;BME280;6464;42.494;27.470;2023-05-02T08:24:49;102461.28;;;17.71;100.00
12801;BME280;6464;42.494;27.470;2023-05-02T08:27:17;102491.19;;;17.88;100.00
12801;BME280;6464;42.494;27.470;2023-05-02T08:29:53;102454.34;;;17.62;100.00
12801;BME280;6464;42.494;27.470;2023-05-02T08:32:42;102561.88;;;18.14;100.00
12801;BME280;6464;42.494;27.470;2023-05-02T08:35:26;102478.59;;;17.50;100.00
12801;BME280;6464;42.494;27.470;2023-05-02T08:38:03;102478.09;;;17.78;100.00
12801;BME280;6464;42.494;27.470;2023-05-02T08:40:35;102507.72;;;18.07;100.00
12801;BME280;6464;42.494;27.470;2023-05-02T08:43:07;102591.84;;;18.71;100.00
12801;BME280;6464;42.494;27.470;2023-05-02T08:45:52;102560.56;;;18.75;100.00
12801;BME280;6464;42.494;27.470;2023-05-02T08:48:36;102606.97;;;19.10;100.00
12801;BME280;6464;42.494;27.470;2023-05-02T08:51:12;102597.41;;;19.01;100.00
12801;BME280;6464;42.494;27.470;2023-05-02T08:54:05;102662.47;;;19.37;100.00
12801;BME280;6464;42.494;27.470;2023-05-02T08:56:40;102550.84;;;18.71;100.00
12801;BME280;6464;42.494;27.470;2023-05-02T08:59:08;102604.66;;;18.96;100.00
12801;BME280;6464;42.494;27.470;2023-05-02T09:01:36;102466.78;;;18.47;100.00
12801;BME280;6464;42.494;27.470;2023-05-02T09:04:13;102666.78;;;19.44;100.00
12801;BME280;6464;42.494;27.470;2023-05-02T09:06:47;102637.31;;;19.46;100.00
12801;BME280;6464;42.494;27.470;2023-05-02T09:09:18;102566.59;;;19.20;100.00
12801;BME280;6464;42.494;27.470;2023-05-02T09:11:46;102663.78;;;19.58;100.00
12801;BME280;6464;42.494;27.470;2023-05-02T09:14:18;102560.50;;;19.15;100.00
12801;BME280;6464;42.494;27.470;2023-05-02T09:16:46;102612.91;;;19.60;100.00
12801;BME280;6464;42.494;27.470;2023-05-02T09:19:24;102399.72;;;18.58;100.00
12801;BME280;6464;42.494;27.470;2023-05-02T09:22:00;102602.09;;;19.97;100.00
12801;BME280;6464;42.494;27.470;2023-05-02T09:24:27;102592.63;;;19.84;100.00
12801;BME280;6464;42.494;27.470;2023-05-02T09:27:03;102534.94;;;20.03;100.00
12801;BME280;6464;42.494;27.470;2023-05-02T09:29:34;102574.59;;;21.87;100.00
12801;BME280;6464;42.494;27.470;2023-05-02T09:32:14;102639.22;;;23.24;100.00
12801;BME280;6464;42.494;27.470;2023-05-02T09:35:03;102660.56;;;25.28;100.00
12801;BME280;6464;42.494;27.470;2023-05-02T09:37:35;102762.75;;;26.45;100.00
12801;BME280;6464;42.494;27.470;2023-05-02T09:40:06;102766.97;;;26.83;100.00
12801;BME280;6464;42.494;27.470;2023-05-02T09:42:34;102766.47;;;26.92;100.00
12801;BME280;6464;42.494;27.470;2023-05-02T09:45:02;102817.47;;;28.87;100.00
12801;BME280;6464;42.494;27.470;2023-05-02T09:47:28;102786.50;;;30.01;100.00
12801;BME280;6464;42.494;27.470;2023-05-02T09:49:55;102804.94;;;29.56;100.00
12801;BME280;6464;42.494;27.470;2023-05-02T09:52:22;102772.44;;;28.40;100.00
12801;BME280;6464;42.494;27.470;2023-05-02T09:54:50;102815.28;;;30.95;100.00
12801;BME280;6464;42.494;27.470;2023-05-02T09:57:18;102797.00;;;30.72;89.10
12801;BME280;6464;42.494;27.470;2023-05-02T09:59:52;102848.41;;;32.01;86.91
12801;BME280;6464;42.494;27.470;2023-05-02T10:02:20;102842.06;;;32.01;85.03
12801;BME280;6464;42.494;27.470;2023-05-02T10:04:48;102831.66;;;31.58;83.68
12801;BME280;6464;42.494;27.470;2023-05-02T10:07:16;102880.81;;;33.45;72.78
12801;BME280;6464;42.494;27.470;2023-05-02T10:09:43;102891.53;;;34.35;64.20
12801;BME280;6464;42.494;27.470;2023-05-02T10:12:14;102874.22;;;33.47;63.24
12801;BME280;6464;42.494;27.470;2023-05-02T10:14:44;102870.19;;;33.85;64.78
12801;BME280;6464;42.494;27.470;2023-05-02T10:17:19;102844.16;;;32.56;68.42
12801;BME280;6464;42.494;27.470;2023-05-02T10:19:53;102826.97;;;32.08;69.04
12801;BME280;6464;42.494;27.470;2023-05-02T10:22:22;102845.34;;;31.69;65.87
12801;BME280;6464;42.494;27.470;2023-05-02T10:24:49;102828.66;;;31.97;65.50
12801;BME280;6464;42.494;27.470;2023-05-02T10:27:18;102844.88;;;33.27;64.72
12801;BME280;6464;42.494;27.470;2023-05-02T10:29:45;102845.59;;;33.63;66.87
12801;BME280;6464;42.494;27.470;2023-05-02T10:32:13;102843.91;;;33.83;67.23
12801;BME280;6464;42.494;27.470;2023-05-02T10:34:41;102861.59;;;35.06;63.99
12801;BME280;6464;42.494;27.470;2023-05-02T10:37:07;102837.97;;;32.65;58.86
12801;BME280;6464;42.494;27.470;2023-05-02T10:39:34;102836.56;;;32.48;63.02
12801;BME280;6464;42.494;27.470;2023-05-02T10:42:03;102843.84;;;33.39;60.87
12801;BME280;6464;42.494;27.470;2023-05-02T10:44:33;102848.63;;;33.92;60.06
12801;BME280;6464;42.494;27.470;2023-05-02T10:47:00;102839.41;;;34.88;61.16
12801;BME280;6464;42.494;27.470;2023-05-02T10:49:27;102880.31;;;35.21;56.47
12801;BME280;6464;42.494;27.470;2023-05-02T10:51:54;102866.84;;;34.88;56.97
12801;BME280;6464;42.494;27.470;2023-05-02T10:54:22;102850.59;;;34.75;58.33
12801;BME280;6464;42.494;27.470;2023-05-02T10:57:06;102855.38;;;34.20;56.31
12801;BME280;6464;42.494;27.470;2023-05-02T10:59:36;102814.38;;;32.75;62.53
12801;BME280;6464;42.494;27.470;2023-05-02T11:02:04;102858.56;;;34.57;57.82
12801;BME280;6464;42.494;27.470;2023-05-02T11:04:58;102875.13;;;35.28;55.25
12801;BME280;6464;42.494;27.470;2023-05-02T11:07:27;102871.81;;;35.65;54.26
12801;BME280;6464;42.494;27.470;2023-05-02T11:10:24;102869.88;;;34.32;53.33
12801;BME280;6464;42.494;27.470;2023-05-02T11:12:54;102886.94;;;35.19;52.49
12801;BME280;6464;42.494;27.470;2023-05-02T11:15:56;102870.91;;;34.51;53.02
12801;BME280;6464;42.494;27.470;2023-05-02T11:18:24;102840.34;;;33.60;54.76
12801;BME280;6464;42.494;27.470;2023-05-02T11:20:51;102855.03;;;34.13;53.10
12801;BME280;6464;42.494;27.470;2023-05-02T11:23:24;102834.19;;;34.22;55.57
12801;BME280;6464;42.494;27.470;2023-05-02T11:25:53;102823.84;;;33.93;55.12
12801;BME280;6464;42.494;27.470;2023-05-02T11:28:40;102825.97;;;34.01;56.51
12801;BME280;6464;42.494;27.470;2023-05-02T11:34:41;102847.22;;;35.63;56.07
12801;BME280;6464;42.494;27.470;2023-05-02T11:37:13;102845.94;;;35.67;56.11
12801;BME280;6464;42.494;27.470;2023-05-02T11:39:41;102820.38;;;35.17;60.44
12801;BME280;6464;42.494;27.470;2023-05-02T11:42:08;102813.41;;;35.53;59.74
12801;BME280;6464;42.494;27.470;2023-05-02T11:44:56;102835.16;;;36.24;61.28
12801;BME280;6464;42.494;27.470;2023-05-02T11:47:25;102818.94;;;34.92;60.22
12801;BME280;6464;42.494;27.470;2023-05-02T11:49:54;102756.31;;;33.50;66.04
12801;BME280;6464;42.494;27.470;2023-05-02T11:52:21;102728.53;;;33.23;70.16
12801;BME280;6464;42.494;27.470;2023-05-02T11:54:49;102776.59;;;34.12;68.51
12801;BME280;6464;42.494;27.470;2023-05-02T11:57:19;102761.53;;;33.54;71.67
12801;BME280;6464;42.494;27.470;2023-05-02T11:59:51;102740.06;;;33.70;76.54
12801;BME280;6464;42.494;27.470;2023-05-02T12:02:18;102686.19;;;31.57;87.32
12801;BME280;6464;42.494;27.470;2023-05-02T12:04:46;102697.25;;;31.32;92.21
12801;BME280;6464;42.494;27.470;2023-05-02T12:07:13;102717.88;;;32.75;82.69
12801;BME280;6464;42.494;27.470;2023-05-02T12:09:50;102700.88;;;31.91;87.65
12801;BME280;6464;42.494;27.470;2023-05-02T12:12:19;102711.56;;;32.06;85.30
12801;BME280;6464;42.494;27.470;2023-05-02T12:14:46;102714.34;;;32.28;82.49
12801;BME280;6464;42.494;27.470;2023-05-02T12:17:13;102699.81;;;32.16;85.32
12801;BME280;6464;42.494;27.470;2023-05-02T12:19:40;102743.69;;;32.48;75.27
12801;BME280;6464;42.494;27.470;2023-05-02T12:22:08;102714.88;;;32.44;82.26
12801;BME280;6464;42.494;27.470;2023-05-02T12:24:36;102694.53;;;32.93;85.22
12801;BME280;6464;42.494;27.470;2023-05-02T12:27:12;102641.47;;;31.60;89.90
12801;BME280;6464;42.494;27.470;2023-05-02T12:29:40;102687.69;;;31.85;89.12
12801;BME280;6464;42.494;27.470;2023-05-02T12:32:08;102675.94;;;30.76;92.05
12801;BME280;6464;42.494;27.470;2023-05-02T12:34:35;102694.06;;;31.97;83.36
12801;BME280;6464;42.494;27.470;2023-05-02T12:37:03;102681.16;;;31.64;86.53
12801;BME280;6464;42.494;27.470;2023-05-02T12:39:36;102670.88;;;32.25;93.63
12801;BME280;6464;42.494;27.470;2023-05-02T12:42:10;102682.22;;;32.32;90.07
12801;BME280;6464;42.494;27.470;2023-05-02T12:44:38;102647.50;;;30.80;90.61
12801;BME280;6464;42.494;27.470;2023-05-02T12:47:05;102657.41;;;31.77;93.94
12801;BME280;6464;42.494;27.470;2023-05-02T12:49:32;102664.88;;;31.86;94.88
12801;BME280;6464;42.494;27.470;2023-05-02T12:51:59;102647.19;;;31.68;92.96
12801;BME280;6464;42.494;27.470;2023-05-02T12:54:26;102618.06;;;31.09;100.00
12801;BME280;6464;42.494;27.470;2023-05-02T12:56:54;102629.84;;;31.69;100.00
12801;BME280;6464;42.494;27.470;2023-05-02T12:59:26;102630.09;;;31.18;100.00
12801;BME280;6464;42.494;27.470;2023-05-02T13:01:53;102633.69;;;31.18;100.00
12801;BME280;6464;42.494;27.470;2023-05-02T13:04:20;102627.53;;;31.04;99.74
12801;BME280;6464;42.494;27.470;2023-05-02T13:06:47;102603.09;;;30.41;100.00
12801;BME280;6464;42.494;27.470;2023-05-02T13:09:13;102621.91;;;30.94;100.00
12801;BME280;6464;42.494;27.470;2023-05-02T13:11:41;102590.91;;;29.83;100.00
12801;BME280;6464;42.494;27.470;2023-05-02T13:14:09;102629.31;;;31.53;100.00
12801;BME280;6464;42.494;27.470;2023-05-02T13:16:36;102633.34;;;30.50;100.00
12801;BME280;6464;42.494;27.470;2023-05-02T13:19:04;102629.00;;;31.44;97.73
12801;BME280;6464;42.494;27.470;2023-05-02T13:21:30;102656.75;;;31.38;91.78
12801;BME280;6464;42.494;27.470;2023-05-02T13:23:57;102662.47;;;32.17;90.44
12801;BME280;6464;42.494;27.470;2023-05-02T13:26:24;102617.88;;;32.72;83.34
12801;BME280;6464;42.494;27.470;2023-05-02T13:28:51;102681.25;;;33.64;82.78
12801;BME280;6464;42.494;27.470;2023-05-02T13:31:19;102630.34;;;32.65;91.57
12801;BME280;6464;42.494;27.470;2023-05-02T13:33:46;102646.31;;;32.81;90.66
12801;BME280;6464;42.494;27.470;2023-05-02T13:36:13;102621.16;;;31.64;95.23
12801;BME280;6464;42.494;27.470;2023-05-02T13:38:40;102631.69;;;32.71;91.06
12801;BME280;6464;42.494;27.470;2023-05-02T13:41:07;102656.09;;;33.49;88.75
12801;BME280;6464;42.494;27.470;2023-05-02T13:43:33;102645.81;;;32.87;93.44
12801;BME280;6464;42.494;27.470;2023-05-02T13:46:00;102629.03;;;33.35;96.16
12801;BME280;6464;42.494;27.470;2023-05-02T13:48:28;102643.91;;;34.16;92.26
12801;BME280;6464;42.494;27.470;2023-05-02T13:50:55;102643.81;;;33.44;89.99
12801;BME280;6464;42.494;27.470;2023-05-02T13:53:22;102612.19;;;33.19;92.80
12801;BME280;6464;42.494;27.470;2023-05-02T13:55:49;102642.34;;;34.23;89.53
12801;BME280;6464;42.494;27.470;2023-05-02T13:58:16;102578.22;;;32.89;95.67
12801;BME280;6464;42.494;27.470;2023-05-02T14:00:43;102620.94;;;33.13;96.30
12801;BME280;6464;42.494;27.470;2023-05-02T14:03:09;102572.19;;;31.62;100.00
12801;BME280;6464;42.494;27.470;2023-05-02T14:05:39;102541.41;;;31.71;100.00
12801;BME280;6464;42.494;27.470;2023-05-02T14:08:08;102589.91;;;33.03;100.00
12801;BME280;6464;42.494;27.470;2023-05-02T14:10:34;102601.25;;;33.19;100.00
12801;BME280;6464;42.494;27.470;2023-05-02T14:13:02;102571.63;;;32.04;100.00
12801;BME280;6464;42.494;27.470;2023-05-02T14:15:29;102549.41;;;31.97;100.00
12801;BME280;6464;42.494;27.470;2023-05-02T14:17:56;102570.56;;;32.72;100.00
12801;BME280;6464;42.494;27.470;2023-05-02T14:20:23;102589.00;;;33.02;100.00
12801;BME280;6464;42.494;27.470;2023-05-02T14:22:52;102582.66;;;32.36;100.00
12801;BME280;6464;42.494;27.470;2023-05-02T14:25:19;102540.13;;;31.42;100.00
12801;BME280;6464;42.494;27.470;2023-05-02T14:27:45;102551.63;;;30.62;100.00
12801;BME280;6464;42.494;27.470;2023-05-02T14:30:12;102565.72;;;31.28;100.00
12801;BME280;6464;42.494;27.470;2023-05-02T14:32:39;102568.69;;;31.60;100.00
12801;BME280;6464;42.494;27.470;2023-05-02T14:35:07;102536.03;;;31.36;100.00
12801;BME280;6464;42.494;27.470;2023-05-02T14:37:34;102538.13;;;31.33;100.00
12801;BME280;6464;42.494;27.470;2023-05-02T14:40:03;102525.97;;;31.37;100.00
12801;BME280;6464;42.494;27.470;2023-05-02T14:42:30;102536.38;;;30.73;100.00
12801;BME280;6464;42.494;27.470;2023-05-02T14:44:57;102557.19;;;31.68;100.00
12801;BME280;6464;42.494;27.470;2023-05-02T14:47:27;102549.22;;;31.54;100.00
12801;BME280;6464;42.494;27.470;2023-05-02T14:49:55;102535.66;;;31.30;100.00
12801;BME280;6464;42.494;27.470;2023-05-02T14:52:22;102514.47;;;30.12;100.00
12801;BME280;6464;42.494;27.470;2023-05-02T14:54:48;102506.94;;;29.79;100.00
12801;BME280;6464;42.494;27.470;2023-05-02T14:57:17;102504.72;;;30.09;100.00
12801;BME280;6464;42.494;27.470;2023-05-02T14:59:44;102517.97;;;29.37;100.00
12801;BME280;6464;42.494;27.470;2023-05-02T15:02:11;102491.28;;;29.69;100.00
12801;BME280;6464;42.494;27.470;2023-05-02T15:04:37;102484.00;;;29.70;100.00
12801;BME280;6464;42.494;27.470;2023-05-02T15:07:05;102550.75;;;29.87;100.00
12801;BME280;6464;42.494;27.470;2023-05-02T15:09:32;102550.97;;;30.09;100.00
12801;BME280;6464;42.494;27.470;2023-05-02T15:11:58;102554.03;;;30.05;100.00
12801;BME280;6464;42.494;27.470;2023-05-02T15:14:28;102568.94;;;29.86;100.00
12801;BME280;6464;42.494;27.470;2023-05-02T15:16:55;102565.81;;;29.27;100.00
12801;BME280;6464;42.494;27.470;2023-05-02T15:19:22;102547.28;;;29.07;100.00
12801;BME280;6464;42.494;27.470;2023-05-02T15:21:49;102563.66;;;28.78;100.00
12801;BME280;6464;42.494;27.470;2023-05-02T15:24:17;102532.63;;;27.84;100.00
12801;BME280;6464;42.494;27.470;2023-05-02T15:26:44;102492.88;;;26.64;100.00
12801;BME280;6464;42.494;27.470;2023-05-02T15:29:11;102499.22;;;26.95;100.00
12801;BME280;6464;42.494;27.470;2023-05-02T15:31:39;102472.22;;;25.49;100.00
12801;BME280;6464;42.494;27.470;2023-05-02T15:34:06;102411.13;;;24.60;100.00
12801;BME280;6464;42.494;27.470;2023-05-02T15:36:33;102416.13;;;23.56;100.00
12801;BME280;6464;42.494;27.470;2023-05-02T15:39:01;102370.16;;;23.01;100.00
12801;BME280;6464;42.494;27.470;2023-05-02T15:41:29;102273.19;;;22.00;100.00
12801;BME280;6464;42.494;27.470;2023-05-02T15:43:56;102188.75;;;21.42;100.00
12801;BME280;6464;42.494;27.470;2023-05-02T15:46:32;102077.00;;;20.73;100.00
12801;BME280;6464;42.494;27.470;2023-05-02T15:49:15;101978.38;;;19.66;100.00
12801;BME280;6464;42.494;27.470;2023-05-02T15:51:48;101855.72;;;18.79;100.00
12801;BME280;6464;42.494;27.470;2023-05-02T15:57:04;101737.66;;;18.66;100.00
12801;BME280;6464;42.494;27.470;2023-05-02T16:00:26;101747.63;;;18.61;100.00
12801;BME280;6464;42.494;27.470;2023-05-02T16:03:36;101845.16;;;19.25;100.00
12801;BME280;6464;42.494;27.470;2023-05-02T16:06:35;101616.22;;;17.76;100.00
12801;BME280;6464;42.494;27.470;2023-05-02T16:09:10;101585.00;;;17.52;100.00
12801;BME280;6464;42.494;27.470;2023-05-02T16:11:59;101568.47;;;18.18;100.00
12801;BME280;6464;42.494;27.470;2023-05-02T16:14:30;101388.78;;;17.19;100.00
12801;BME280;6464;42.494;27.470;2023-05-02T16:19:34;101281.25;;;17.20;100.00
12801;BME280;6464;42.494;27.470;2023-05-02T16:30:20;100988.06;;;16.77;100.00
12801;BME280;6464;42.494;27.470;2023-05-02T16:32:47;101128.97;;;17.73;100.00
12801;BME280;6464;42.494;27.470;2023-05-02T16:35:21;100932.13;;;16.55;100.00
12801;BME280;6464;42.494;27.470;2023-05-02T16:37:50;101082.41;;;17.16;100.00
12801;BME280;6464;42.494;27.470;2023-05-02T16:40:19;100839.53;;;15.72;100.00
12801;BME280;6464;42.494;27.470;2023-05-02T16:42:54;100994.06;;;16.82;100.00
12801;BME280;6464;42.494;27.470;2023-05-02T16:45:23;100906.72;;;16.46;100.00
12801;BME280;6464;42.494;27.470;2023-05-02T16:47:51;100953.34;;;16.56;100.00
12801;BME280;6464;42.494;27.470;2023-05-02T16:50:18;100893.25;;;16.05;100.00
12801;BME280;6464;42.494;27.470;2023-05-02T16:52:47;101077.50;;;16.59;100.00
12801;BME280;6464;42.494;27.470;2023-05-02T16:55:15;100874.69;;;15.55;100.00
12801;BME280;6464;42.494;27.470;2023-05-02T16:57:43;100845.47;;;15.30;100.00
12801;BME280;6464;42.494;27.470;2023-05-02T17:00:16;100713.34;;;14.62;100.00
12801;BME280;6464;42.494;27.470;2023-05-02T17:02:48;100743.72;;;15.03;100.00
12801;BME280;6464;42.494;27.470;2023-05-02T17:05:19;100883.59;;;15.54;100.00
12801;BME280;6464;42.494;27.470;2023-05-02T17:07:54;100665.16;;;14.23;100.00
12801;BME280;6464;42.494;27.470;2023-05-02T17:10:25;100634.13;;;14.25;100.00
12801;BME280;6464;42.494;27.470;2023-05-02T17:12:58;100755.78;;;15.13;100.00
12801;BME280;6464;42.494;27.470;2023-05-02T17:15:27;100683.53;;;14.79;100.00
12801;BME280;6464;42.494;27.470;2023-05-02T17:17:56;100760.03;;;14.93;100.00
12801;BME280;6464;42.494;27.470;2023-05-02T17:20:24;100714.13;;;14.39;100.00
12801;BME280;6464;42.494;27.470;2023-05-02T17:22:55;100694.22;;;14.26;100.00
12801;BME280;6464;42.494;27.470;2023-05-02T17:25:27;100642.84;;;13.77;100.00
12801;BME280;6464;42.494;27.470;2023-05-02T17:27:59;100631.81;;;13.62;100.00
12801;BME280;6464;42.494;27.470;2023-05-02T17:30:27;100781.38;;;14.38;100.00
12801;BME280;6464;42.494;27.470;2023-05-02T17:33:05;100761.09;;;14.35;100.00
12801;BME280;6464;42.494;27.470;2023-05-02T17:35:34;100788.13;;;14.20;100.00
12801;BME280;6464;42.494;27.470;2023-05-02T17:38:07;100680.25;;;13.40;100.00